Time;durP1;ratioP1;P1;durP2;ratioP2;P2;SDS_P1;SDS_P2;PMS_P1;PMS_P2;Temp;Humidity;BMP_temperature;BMP_pressure;BME280_temperature;BME280_humidity;BME280_pressure;Samples;Min_cycle;Max_cycle;Signal;HPM_P1;HPM_P2
2022/09/28 00:01:20;;;;;;;;;;;;;;;10.82;99.91;98468.16;4448339;32;34969;-78
2022/09/28 00:04:07;;;;;;;;;;;;;;;11.69;96.72;98462.25;4449523;32;34889;-79
2022/09/28 00:06:53;;;;;;;;;;;;;;;11.43;96.42;98457.94;4449052;32;33414;-78
2022/09/28 00:09:39;;;;;;;;;;;;;;;11.47;96.56;98444.38;4437811;32;34220;-79
2022/09/28 00:12:25;;;;;;;;;;;;;;;11.35;96.31;98444.38;4450101;32;35703;-78
2022/09/28 00:15:11;;;;;;;;;;;;;;;11.63;95.49;98447.19;4434223;32;35156;-78
2022/09/28 00:17:57;;;;;;;;;;;;;;;11.36;95.33;98448.72;4436126;32;34984;-78
2022/09/28 00:20:43;;;;;;;;;;;;;;;11.42;96.20;98436.38;4448308;32;34314;-78
2022/09/28 00:23:29;;;;;;;;;;;;;;;11.36;95.44;98446.00;4449721;32;35771;-78
2022/09/28 00:26:15;;;;;;;;;;;;;;;10.65;100.00;98442.56;4449542;32;34853;-78
2022/09/28 00:29:01;;;;;;;;;;;;;;;10.39;100.00;98444.78;4427853;32;33568;-78
2022/09/28 00:31:50;;;;;;;;;;;;;;;10.29;100.00;98446.81;4424845;32;33664;-78
2022/09/28 00:34:39;;;;;;;;;;;;;;;9.99;100.00;98448.03;4437869;32;35407;-78
2022/09/28 00:37:25;;;;;;;;;;;;;;;10.79;100.00;98444.97;4448514;32;34850;-78
2022/09/28 00:40:11;;;;;;;;;;;;;;;10.51;100.00;98453.03;4448538;32;33717;-78
2022/09/28 00:42:57;;;;;;;;;;;;;;;11.00;99.05;98450.34;4447229;32;34175;-78
2022/09/28 00:45:43;;;;;;;;;;;;;;;10.38;100.00;98448.66;4449070;32;33686;-78
2022/09/28 00:48:31;;;;;;;;;;;;;;;9.60;100.00;98447.41;4436908;32;36257;-78
2022/09/28 00:51:18;;;;;;;;;;;;;;;9.95;100.00;98458.06;4436803;32;35411;-78
2022/09/28 00:54:04;;;;;;;;;;;;;;;9.87;100.00;98449.56;4436621;32;34092;-78
2022/09/28 00:56:49;;;;;;;;;;;;;;;10.37;100.00;98444.34;4435745;32;34938;-78
2022/09/28 00:59:36;;;;;;;;;;;;;;;10.56;99.62;98442.66;4436865;32;35215;-79
2022/09/28 01:02:21;;;;;;;;;;;;;;;10.96;98.59;98443.97;4436455;32;34924;-78
2022/09/28 01:05:09;;;;;;;;;;;;;;;11.16;96.73;98462.22;4437236;32;34933;-79
2022/09/28 01:07:55;;;;;;;;;;;;;;;11.22;96.57;98455.34;4448648;32;34819;-78
2022/09/28 01:10:44;;;;;;;;;;;;;;;11.75;94.31;98449.88;4435776;32;35195;-78
2022/09/28 01:13:30;;;;;;;;;;;;;;;11.82;94.26;98449.31;4426709;32;35652;-78
2022/09/28 01:16:16;;;;;;;;;;;;;;;11.66;95.66;98458.25;4437533;32;34333;-79
2022/09/28 01:19:43;;;;;;;;;;;;;;;11.40;92.30;98449.62;4448416;32;34486;-78
2022/09/28 01:22:47;;;;;;;;;;;;;;;10.26;97.93;98460.34;4374966;32;35196;-77
2022/09/28 01:25:52;;;;;;;;;;;;;;;10.06;99.37;98456.50;4384381;32;34931;-78
2022/09/28 01:28:39;;;;;;;;;;;;;;;10.47;97.63;98463.06;4447399;32;34776;-78
2022/09/28 01:31:25;;;;;;;;;;;;;;;10.41;96.77;98464.41;4427239;32;34720;-78
2022/09/28 01:34:33;;;;;;;;;;;;;;;10.97;96.03;98465.53;4426196;32;35027;-79
2022/09/28 01:37:19;;;;;;;;;;;;;;;11.14;94.63;98467.25;4437218;32;35202;-79
2022/09/28 01:40:05;;;;;;;;;;;;;;;11.71;93.63;98466.25;4436964;32;33839;-79
2022/09/28 01:43:11;;;;;;;;;;;;;;;11.63;94.70;98472.66;4425367;32;34908;-79
2022/09/28 01:45:59;;;;;;;;;;;;;;;11.37;93.67;98472.25;4427058;32;36122;-78
2022/09/28 01:49:08;;;;;;;;;;;;;;;10.95;95.70;98477.97;4435818;32;35446;-78
2022/09/28 01:52:00;;;;;;;;;;;;;;;10.94;95.37;98482.66;4448773;32;34122;-78
2022/09/28 01:54:46;;;;;;;;;;;;;;;10.80;97.94;98474.75;4449445;32;34631;-78
2022/09/28 01:57:43;;;;;;;;;;;;;;;11.30;95.71;98477.50;4449135;32;35290;-78
2022/09/28 02:00:29;;;;;;;;;;;;;;;10.89;97.68;98479.34;4435806;32;35576;-78
2022/09/28 02:03:17;;;;;;;;;;;;;;;11.32;95.82;98469.75;4434711;32;34863;-79
2022/09/28 02:06:05;;;;;;;;;;;;;;;11.32;96.58;98480.72;4435006;32;34899;-79
2022/09/28 02:08:56;;;;;;;;;;;;;;;11.28;96.86;98468.84;4436145;32;36103;-79
2022/09/28 02:11:44;;;;;;;;;;;;;;;11.36;95.97;98470.66;4448440;32;35497;-78
2022/09/28 02:14:30;;;;;;;;;;;;;;;11.81;94.30;98477.88;4436377;32;34293;-78
2022/09/28 02:17:18;;;;;;;;;;;;;;;11.73;93.64;98476.09;4427020;32;34910;-78
2022/09/28 02:20:04;;;;;;;;;;;;;;;10.20;100.00;98476.19;4437276;32;35195;-78
2022/09/28 02:22:51;;;;;;;;;;;;;;;10.40;100.00;98474.56;4447208;32;34925;-78
2022/09/28 02:25:39;;;;;;;;;;;;;;;10.50;97.75;98478.81;4425143;32;34005;-78
2022/09/28 02:28:26;;;;;;;;;;;;;;;10.13;99.61;98475.91;4430739;32;34837;-77
2022/09/28 02:31:12;;;;;;;;;;;;;;;10.00;98.91;98471.53;4437190;32;35139;-78
2022/09/28 02:33:58;;;;;;;;;;;;;;;10.69;96.25;98472.81;4426480;32;34377;-78
2022/09/28 02:36:45;;;;;;;;;;;;;;;10.75;96.13;98479.66;4437302;32;34047;-78
2022/09/28 02:39:30;;;;;;;;;;;;;;;10.60;97.86;98483.84;4435706;32;34893;-78
2022/09/28 02:42:27;;;;;;;;;;;;;;;11.39;95.06;98481.75;4434662;32;34687;-78
2022/09/28 02:45:20;;;;;;;;;;;;;;;11.56;94.33;98474.41;4446798;32;35711;-78
2022/09/28 02:48:25;;;;;;;;;;;;;;;11.66;94.00;98484.87;4436990;32;33734;-78
2022/09/28 02:51:31;;;;;;;;;;;;;;;11.83;88.04;98475.59;4449103;32;35754;-78
2022/09/28 02:54:30;;;;;;;;;;;;;;;12.21;86.35;98483.41;4448631;32;35313;-78
2022/09/28 02:57:16;;;;;;;;;;;;;;;12.38;86.56;98488.56;4435974;32;34418;-78
2022/09/28 03:00:09;;;;;;;;;;;;;;;12.39;84.77;98500.34;4447716;32;34184;-78
2022/09/28 03:02:58;;;;;;;;;;;;;;;12.30;86.77;98496.97;4435651;32;34930;-79
2022/09/28 03:05:59;;;;;;;;;;;;;;;11.34;91.95;98509.38;4448599;32;34862;-78
2022/09/28 03:08:53;;;;;;;;;;;;;;;11.96;88.26;98510.13;4448594;32;35974;-78
2022/09/28 03:11:42;;;;;;;;;;;;;;;12.40;87.96;98525.88;4436933;32;35110;-78
2022/09/28 03:14:28;;;;;;;;;;;;;;;12.05;90.17;98521.75;4425946;32;34897;-78
2022/09/28 03:17:15;;;;;;;;;;;;;;;12.10;90.09;98520.72;4435375;32;35923;-78
2022/09/28 03:20:01;;;;;;;;;;;;;;;12.00;91.36;98511.03;4448448;32;35015;-78
2022/09/28 03:22:47;;;;;;;;;;;;;;;11.91;91.96;98532.31;4436830;32;34171;-78
2022/09/28 03:25:53;;;;;;;;;;;;;;;11.92;93.62;98528.44;4447960;32;34931;-79
2022/09/28 03:28:40;;;;;;;;;;;;;;;11.67;94.54;98525.72;4449347;32;35231;-79
2022/09/28 03:31:26;;;;;;;;;;;;;;;11.63;95.07;98522.03;4450848;32;35677;-78
2022/09/28 03:34:13;;;;;;;;;;;;;;;11.69;95.21;98523.41;4450439;32;33948;-79
2022/09/28 03:37:00;;;;;;;;;;;;;;;12.03;93.66;98521.31;4427813;32;35653;-79
2022/09/28 03:39:46;;;;;;;;;;;;;;;12.00;93.21;98519.25;4427755;32;35207;-78
2022/09/28 03:42:34;;;;;;;;;;;;;;;11.89;93.68;98523.63;4437694;32;35768;-78
2022/09/28 03:45:20;;;;;;;;;;;;;;;12.22;91.47;98522.63;4437860;32;34077;-78
2022/09/28 03:48:06;;;;;;;;;;;;;;;12.47;88.58;98528.84;4438600;32;35812;-79
2022/09/28 03:50:56;;;;;;;;;;;;;;;12.28;89.75;98532.22;4449826;32;35323;-78
2022/09/28 03:53:43;;;;;;;;;;;;;;;12.31;89.04;98537.00;4438055;32;33681;-78
2022/09/28 03:56:29;;;;;;;;;;;;;;;12.48;87.24;98541.41;4448707;32;34940;-78
2022/09/28 03:59:15;;;;;;;;;;;;;;;11.78;91.11;98528.78;4450123;32;35464;-78
2022/09/28 04:02:03;;;;;;;;;;;;;;;12.22;90.39;98528.13;4437596;32;35998;-78
2022/09/28 04:04:49;;;;;;;;;;;;;;;11.21;91.96;98521.50;4436645;32;35082;-78
2022/09/28 04:07:35;;;;;;;;;;;;;;;11.42;91.27;98524.94;4450655;32;34346;-78
2022/09/28 04:10:22;;;;;;;;;;;;;;;10.78;92.61;98514.59;4438344;32;34474;-78
2022/09/28 04:13:07;;;;;;;;;;;;;;;10.92;94.58;98517.03;4436799;32;35239;-78
2022/09/28 04:15:54;;;;;;;;;;;;;;;11.24;93.02;98518.88;4437529;32;34835;-78
2022/09/28 04:18:41;;;;;;;;;;;;;;;11.37;92.57;98516.13;4437970;32;34974;-78
2022/09/28 04:21:28;;;;;;;;;;;;;;;11.49;91.88;98518.88;4417131;32;35651;-78
2022/09/28 04:24:15;;;;;;;;;;;;;;;11.69;91.37;98522.63;4450149;32;35672;-78
2022/09/28 04:30:07;;;;;;;;;;;;;;;11.61;91.22;98509.81;4447934;32;34616;-78
2022/09/28 04:32:53;;;;;;;;;;;;;;;11.55;91.40;98513.94;4449768;32;33687;-78
2022/09/28 04:35:39;;;;;;;;;;;;;;;10.87;93.52;98511.75;4449681;32;33774;-79
2022/09/28 04:38:25;;;;;;;;;;;;;;;11.75;90.54;98514.94;4424167;32;34866;-78
2022/09/28 04:41:31;;;;;;;;;;;;;;;11.84;89.40;98524.66;4449294;32;34644;-78
2022/09/28 04:44:18;;;;;;;;;;;;;;;11.81;89.89;98524.53;4427191;32;34902;-78
2022/09/28 04:47:04;;;;;;;;;;;;;;;10.22;98.62;98534.12;4436890;32;34786;-78
2022/09/28 04:49:51;;;;;;;;;;;;;;;10.57;97.85;98517.41;4442757;32;227883;-78
2022/09/28 04:52:37;;;;;;;;;;;;;;;10.73;97.78;98518.38;4419436;32;34839;-78
2022/09/28 04:55:24;;;;;;;;;;;;;;;10.88;96.05;98513.38;4430199;32;34536;-77
2022/09/28 04:58:11;;;;;;;;;;;;;;;11.54;91.68;98512.34;4434204;32;34796;-78
2022/09/28 05:00:59;;;;;;;;;;;;;;;11.71;89.92;98509.34;4443892;32;35161;-78
2022/09/28 05:03:46;;;;;;;;;;;;;;;11.61;90.42;98513.38;4431589;32;34829;-78
2022/09/28 05:06:32;;;;;;;;;;;;;;;11.51;91.44;98516.59;4433226;32;34923;-78
2022/09/28 05:09:19;;;;;;;;;;;;;;;11.40;92.75;98526.41;4434253;32;35290;-78
2022/09/28 05:12:05;;;;;;;;;;;;;;;11.30;93.62;98526.88;4434132;32;34517;-78
2022/09/28 05:14:51;;;;;;;;;;;;;;;11.12;94.36;98532.56;4422127;32;34012;-78
2022/09/28 05:17:37;;;;;;;;;;;;;;;11.13;94.78;98534.19;4434198;32;34940;-78
2022/09/28 05:20:23;;;;;;;;;;;;;;;10.94;96.06;98531.97;4431223;32;36024;-78
2022/09/28 05:23:11;;;;;;;;;;;;;;;10.97;96.44;98530.50;4434157;32;34920;-78
2022/09/28 05:25:59;;;;;;;;;;;;;;;11.29;92.61;98541.72;4434343;32;33661;-78
2022/09/28 05:28:45;;;;;;;;;;;;;;;11.41;91.83;98536.22;4433301;32;34952;-78
2022/09/28 05:31:32;;;;;;;;;;;;;;;11.14;93.12;98540.47;4433570;32;35849;-78
2022/09/28 05:34:20;;;;;;;;;;;;;;;11.17;92.22;98534.31;4434161;32;34882;-78
2022/09/28 05:37:05;;;;;;;;;;;;;;;11.20;93.21;98541.84;4434456;32;35065;-78
2022/09/28 05:39:51;;;;;;;;;;;;;;;11.35;92.27;98543.09;4432995;32;34555;-78
2022/09/28 05:42:37;;;;;;;;;;;;;;;11.42;91.62;98535.09;4434142;32;34768;-78
2022/09/28 05:45:23;;;;;;;;;;;;;;;11.30;92.66;98540.56;4431528;32;34583;-78
2022/09/28 05:48:09;;;;;;;;;;;;;;;11.24;93.77;98535.34;4434032;32;34099;-78
2022/09/28 05:50:57;;;;;;;;;;;;;;;11.39;92.85;98535.81;4431152;32;34731;-78
2022/09/28 05:53:44;;;;;;;;;;;;;;;10.49;96.26;98532.78;4432718;32;33897;-77
2022/09/28 05:56:30;;;;;;;;;;;;;;;9.59;99.92;98530.56;4432255;32;35128;-77
2022/09/28 05:59:17;;;;;;;;;;;;;;;9.80;99.38;98528.66;4433472;32;33897;-77
2022/09/28 06:02:03;;;;;;;;;;;;;;;9.56;100.00;98526.59;4433966;32;35527;-78
2022/09/28 06:04:50;;;;;;;;;;;;;;;10.40;97.21;98534.81;4432491;32;35271;-78
2022/09/28 06:07:36;;;;;;;;;;;;;;;10.71;95.42;98528.84;4432180;32;33636;-78
2022/09/28 06:10:23;;;;;;;;;;;;;;;11.02;94.92;98541.25;4434203;32;34712;-78
2022/09/28 06:13:09;;;;;;;;;;;;;;;10.91;94.30;98542.84;4432562;32;34930;-78
2022/09/28 06:15:56;;;;;;;;;;;;;;;10.46;93.93;98543.63;4432619;32;36173;-78
2022/09/28 06:18:43;;;;;;;;;;;;;;;10.13;95.81;98536.13;4433379;32;34965;-78
2022/09/28 06:21:30;;;;;;;;;;;;;;;10.80;95.60;98535.03;4434063;32;34201;-78
2022/09/28 06:24:16;;;;;;;;;;;;;;;10.45;93.48;98528.34;4433086;32;34926;-78
2022/09/28 06:27:03;;;;;;;;;;;;;;;10.58;94.62;98529.94;4429883;32;35251;-78
2022/09/28 06:29:48;;;;;;;;;;;;;;;10.59;96.90;98542.53;4433838;32;35780;-77
2022/09/28 06:32:35;;;;;;;;;;;;;;;10.54;97.10;98537.25;4430642;32;34797;-77
2022/09/28 06:35:21;;;;;;;;;;;;;;;10.62;93.13;98538.31;4433579;32;34874;-78
2022/09/28 06:38:09;;;;;;;;;;;;;;;10.70;94.55;98549.19;4433874;32;35237;-78
2022/09/28 06:40:58;;;;;;;;;;;;;;;10.80;92.58;98543.25;4431912;32;34881;-77
2022/09/28 06:43:45;;;;;;;;;;;;;;;11.11;93.96;98547.44;4422295;32;35565;-79
2022/09/28 06:46:34;;;;;;;;;;;;;;;10.51;96.22;98543.41;4426557;32;33560;-78
2022/09/28 06:49:26;;;;;;;;;;;;;;;10.92;94.89;98544.41;4418696;32;35307;-79
2022/09/28 06:52:13;;;;;;;;;;;;;;;10.72;93.63;98552.37;4423756;32;35156;-78
2022/09/28 06:55:00;;;;;;;;;;;;;;;11.31;91.77;98553.97;4435722;32;35187;-78
2022/09/28 06:57:46;;;;;;;;;;;;;;;11.61;91.05;98554.53;4414427;32;34853;-79
2022/09/28 07:00:34;;;;;;;;;;;;;;;11.30;89.18;98546.06;4424008;32;35695;-80
2022/09/28 07:03:20;;;;;;;;;;;;;;;11.37;88.63;98547.09;4424552;32;34834;-79
2022/09/28 07:06:08;;;;;;;;;;;;;;;11.90;86.65;98544.47;4425218;32;32412;-79
2022/09/28 07:08:54;;;;;;;;;;;;;;;12.27;85.12;98538.88;4426804;32;34202;-79
2022/09/28 07:12:03;;;;;;;;;;;;;;;11.90;85.97;98550.75;4432317;32;34774;-80
2022/09/28 07:14:55;;;;;;;;;;;;;;;12.61;83.36;98548.47;4435295;32;35214;-79
2022/09/28 07:17:41;;;;;;;;;;;;;;;12.21;82.81;98548.47;4434033;32;34771;-79
2022/09/28 07:20:44;;;;;;;;;;;;;;;12.31;84.12;98537.81;4418153;32;35398;-80
2022/09/28 07:23:40;;;;;;;;;;;;;;;13.01;83.02;98540.09;4432635;32;35026;-79
2022/09/28 07:26:40;;;;;;;;;;;;;;;12.78;82.63;98550.09;4434339;32;34904;-79
2022/09/28 07:29:27;;;;;;;;;;;;;;;13.56;78.75;98539.47;4435184;32;33922;-79
2022/09/28 07:32:12;;;;;;;;;;;;;;;13.45;79.96;98539.22;4432841;32;35580;-79
2022/09/28 07:35:00;;;;;;;;;;;;;;;14.00;76.81;98537.31;4424694;32;34692;-79
2022/09/28 07:37:46;;;;;;;;;;;;;;;14.27;76.35;98529.22;4436820;32;32324;-79
2022/09/28 07:43:39;;;;;;;;;;;;;;;14.13;75.86;98526.97;4430010;32;35729;-79
2022/09/28 07:46:25;;;;;;;;;;;;;;;14.47;75.44;98532.78;4435478;32;33950;-79
2022/09/28 07:49:14;;;;;;;;;;;;;;;14.46;77.10;98539.44;4429157;32;35117;-79
2022/09/28 07:52:03;;;;;;;;;;;;;;;14.82;81.54;98536.22;4437306;32;34450;-79
2022/09/28 07:54:51;;;;;;;;;;;;;;;13.59;85.60;98542.31;4437406;32;35753;-79
2022/09/28 07:57:38;;;;;;;;;;;;;;;13.52;87.34;98541.34;4416407;32;34430;-79
2022/09/28 08:00:30;;;;;;;;;;;;;;;14.00;85.27;98548.31;4438333;32;35758;-78
2022/09/28 08:03:21;;;;;;;;;;;;;;;14.71;85.94;98554.53;4425952;32;35073;-79
2022/09/28 08:06:10;;;;;;;;;;;;;;;15.25;85.88;98552.72;4432301;32;34368;-79
2022/09/28 08:08:58;;;;;;;;;;;;;;;14.39;84.04;98549.16;4424731;32;34699;-79
2022/09/28 08:11:45;;;;;;;;;;;;;;;14.05;84.98;98547.25;4435836;32;35647;-79
2022/09/28 08:14:33;;;;;;;;;;;;;;;14.19;85.51;98539.28;4435907;32;33712;-79
2022/09/28 08:17:19;;;;;;;;;;;;;;;13.87;84.63;98528.41;4435597;32;34868;-81
2022/09/28 08:23:10;;;;;;;;;;;;;;;13.59;88.43;98516.75;4437808;32;34965;-80
2022/09/28 08:25:58;;;;;;;;;;;;;;;14.38;85.39;98508.19;4426692;32;34364;-80
2022/09/28 08:28:45;;;;;;;;;;;;;;;14.87;82.88;98507.56;4437770;32;34958;-80
2022/09/28 08:31:35;;;;;;;;;;;;;;;14.96;84.85;98510.06;4415335;32;34619;-81
2022/09/28 08:34:22;;;;;;;;;;;;;;;15.03;83.51;98510.22;4436586;32;34309;-79
2022/09/28 08:37:11;;;;;;;;;;;;;;;15.10;82.62;98515.84;4437075;32;32545;-81
2022/09/28 08:39:59;;;;;;;;;;;;;;;14.93;85.56;98532.88;4438020;32;34907;-81
2022/09/28 08:42:45;;;;;;;;;;;;;;;14.80;84.83;98541.34;4426609;32;35175;-80
2022/09/28 08:45:35;;;;;;;;;;;;;;;14.43;84.00;98529.97;4435406;32;34772;-81
2022/09/28 08:51:51;;;;;;;;;;;;;;;16.11;80.49;98546.59;4430274;32;34394;-81
2022/09/28 08:54:43;;;;;;;;;;;;;;;16.35;77.53;98544.50;4423975;32;34828;-80
2022/09/28 08:57:34;;;;;;;;;;;;;;;16.47;79.24;98535.19;4436803;32;33750;-80
2022/09/28 09:00:41;;;;;;;;;;;;;;;15.65;78.82;98529.31;4435998;32;34666;-80
2022/09/28 09:03:34;;;;;;;;;;;;;;;16.51;78.97;98523.00;4435551;32;34719;-80
2022/09/28 09:06:33;;;;;;;;;;;;;;;16.60;78.51;98517.97;4433349;32;36066;-80
2022/09/28 09:09:29;;;;;;;;;;;;;;;16.56;79.87;98519.09;4425943;32;34753;-80
2022/09/28 09:12:31;;;;;;;;;;;;;;;15.97;79.10;98518.78;4414751;32;34112;-80
2022/09/28 09:15:17;;;;;;;;;;;;;;;16.70;76.01;98510.94;4424919;32;35486;-80
2022/09/28 09:18:21;;;;;;;;;;;;;;;17.03;74.01;98512.09;4426683;32;33406;-80
2022/09/28 09:21:12;;;;;;;;;;;;;;;17.03;76.25;98512.88;4435550;32;34435;-82
2022/09/28 09:24:26;;;;;;;;;;;;;;;17.86;73.93;98497.69;4435465;32;34192;-82
2022/09/28 09:27:21;;;;;;;;;;;;;;;16.58;75.32;98511.22;4420172;32;33978;-81
2022/09/28 09:30:09;;;;;;;;;;;;;;;17.53;73.46;98504.16;4432662;32;36214;-81
2022/09/28 09:32:55;;;;;;;;;;;;;;;17.44;75.96;98514.78;4425105;32;34256;-80
2022/09/28 09:35:42;;;;;;;;;;;;;;;18.57;67.70;98501.94;4434846;32;33552;-80
2022/09/28 09:38:49;;;;;;;;;;;;;;;17.04;69.60;98508.94;4435923;32;34788;-81
2022/09/28 09:41:40;;;;;;;;;;;;;;;17.39;75.45;98502.13;4435112;32;35031;-82
2022/09/28 09:44:44;;;;;;;;;;;;;;;16.74;74.03;98511.00;4435824;32;35156;-80
2022/09/28 09:47:34;;;;;;;;;;;;;;;17.01;75.42;98508.91;4414493;32;34699;-81
2022/09/28 09:50:29;;;;;;;3.62;1.20;;;;;;;17.10;75.29;98506.59;4427750;32;34488;-83
2022/09/28 09:53:19;;;;;;;;;;;;;;;16.51;76.41;98509.16;4425626;32;33425;-82
2022/09/28 09:56:08;;;;;;;;;;;;;;;16.83;77.75;98504.00;4426909;32;34211;-80
2022/09/28 09:58:56;;;;;;;;;;;;;;;17.76;73.77;98501.19;4426895;32;33543;-81
2022/09/28 10:01:42;;;;;;;;;;;;;;;17.94;71.72;98509.63;4436711;32;34946;-83
2022/09/28 10:04:31;;;;;;;;;;;;;;;17.00;74.98;98510.88;4425357;32;36158;-80
2022/09/28 10:07:25;;;;;;;;;;;;;;;18.16;71.25;98510.53;4437224;32;34726;-81
2022/09/28 10:10:13;;;;;;;;;;;;;;;16.33;76.24;98513.69;4436274;32;33849;-81
2022/09/28 10:12:59;;;;;;;;;;;;;;;16.39;78.11;98515.75;4425157;32;34737;-83
2022/09/28 10:15:47;;;;;;;;;;;;;;;16.69;76.29;98514.09;4417283;32;35866;-83
2022/09/28 10:18:35;;;;;;;;;;;;;;;17.35;73.28;98515.13;4427287;32;35716;-82
2022/09/28 10:21:25;;;;;;;;;;;;;;;17.31;74.23;98522.63;4427400;32;33052;-82
2022/09/28 10:24:32;;;;;;;;;;;;;;;18.13;71.05;98519.59;4425561;32;34892;-81
2022/09/28 10:27:22;;;;;;;;;;;;;;;17.23;76.49;98520.97;4435980;32;35130;-82
2022/09/28 10:30:08;;;;;;;;;;;;;;;18.34;69.30;98511.38;4424411;32;34915;-82
2022/09/28 10:32:58;;;;;;;;;;;;;;;18.39;69.50;98511.00;4424097;32;34089;-80
2022/09/28 10:35:46;;;;;;;;;;;;;;;17.13;71.25;98511.38;4417618;32;34598;-79
2022/09/28 10:38:33;;;;;;;;;;;;;;;17.13;73.58;98507.81;4424284;32;35250;-81
2022/09/28 10:41:21;;;;;;;;;;;;;;;17.13;72.17;98513.34;4436003;32;35143;-81
2022/09/28 10:44:11;;;;;;;;;;;;;;;18.06;72.47;98512.03;4425319;32;34349;-84
2022/09/28 10:47:01;;;;;;;;;;;;;;;18.27;69.96;98505.00;4426816;32;34184;-81
2022/09/28 10:49:48;;;;;;;;;;;;;;;18.62;68.63;98498.78;4425143;32;36131;-82
2022/09/28 10:52:35;;;;;;;;;;;;;;;17.11;68.75;98499.13;4424467;32;35241;-84
2022/09/28 10:55:30;;;;;;;;;;;;;;;16.75;72.24;98507.03;4424458;32;33412;-82
2022/09/28 10:58:23;;;;;;;;;;;;;;;16.64;73.62;98506.94;4423408;32;36162;-80
2022/09/28 11:01:16;;;;;;;;;;;;;;;16.68;73.21;98506.97;4423165;32;35109;-83
2022/09/28 11:04:03;;;;;;;;;;;;;;;17.28;71.54;98496.50;4423431;32;34871;-81
2022/09/28 11:06:50;;;;;;;;;;;;;;;17.45;72.62;98489.50;4426024;32;34443;-81
2022/09/28 11:09:38;;;;;;;;;;;;;;;18.33;70.22;98493.16;4426919;32;34889;-81
2022/09/28 11:12:26;;;;;;;;;;;;;;;17.51;69.25;98482.41;4432714;32;34730;-82
2022/09/28 11:15:16;;;;;;;;;;;;;;;18.70;64.17;98475.44;4433139;32;33314;-83
2022/09/28 11:18:21;;;;;;;;;;;;;;;18.64;66.64;98479.75;4425749;32;34069;-81
2022/09/28 11:21:08;;;;;;;;;;;;;;;18.83;64.06;98470.31;4421738;32;35065;-82
2022/09/28 11:24:00;;;;;;;;;;;;;;;18.67;63.87;98470.69;4426124;32;34936;-81
2022/09/28 11:26:47;;;;;;;;;;;;;;;18.91;63.92;98473.91;4425539;32;33030;-82
2022/09/28 11:29:34;;;;;;;;;;;;;;;18.51;66.19;98461.91;4433833;32;34629;-81
2022/09/28 11:32:23;;;;;;;;;;;;;;;18.03;68.31;98465.72;4415319;32;35702;-80
2022/09/28 11:35:37;;;;;;;;;;;;;;;18.59;66.89;98466.28;4414344;32;36218;-81
2022/09/28 11:38:32;;;;;;;;;;;;;;;18.96;62.69;98465.97;4395861;32;35089;-80
2022/09/28 11:41:27;;;;;;;;;;;;;;;18.92;64.07;98469.94;4433884;32;34941;-81
2022/09/28 11:44:22;;;;;;;;;;;;;;;19.47;64.17;98459.22;4415610;32;34753;-80
2022/09/28 11:47:23;;;;;;;;;;;;;;;19.42;60.26;98465.16;4425130;32;36114;-84
2022/09/28 11:50:17;;;;;;;;;;;;;;;18.62;62.02;98471.84;4425438;32;34902;-83
2022/09/28 11:53:09;;;;;;;;;;;;;;;18.60;63.64;98456.78;4415034;32;33938;-81
2022/09/28 11:56:14;;;;;;;;;;;;;;;18.08;67.17;98454.25;4436545;32;34231;-91
2022/09/28 11:59:19;;;;;;;;;;;;;;;18.70;63.46;98456.00;4435411;32;35741;-81
2022/09/28 12:02:15;;;;;;;;;;;;;;;18.72;65.90;98441.72;4437376;32;35870;-84
2022/09/28 12:05:05;;;;;;;;;;;;;;;19.29;60.84;98441.75;4425247;32;34629;-84
2022/09/28 12:07:55;;;;;;;;;;;;;;;18.87;62.65;98444.16;4425362;32;34489;-86
2022/09/28 12:11:00;;;;;;;;;;;;;;;18.94;58.78;98432.28;4426541;32;35362;-81
2022/09/28 12:13:50;;;;;;;;;;;;;;;18.92;58.88;98433.84;4437483;32;34251;-83
2022/09/28 12:16:40;;;;;;;;;;;;;;;18.86;61.76;98434.25;4426099;32;34183;-82
2022/09/28 12:20:09;;;;;;;;;;;;;;;18.86;60.45;98428.69;4427437;32;34830;-86
2022/09/28 12:22:58;;;;;;;;;;;;;;;19.00;62.89;98429.88;4435005;32;35960;-83
2022/09/28 12:25:46;;;;;;;;;;;;;;;18.84;60.26;98419.16;4435343;32;35462;-81
2022/09/28 12:28:32;;;;;;;;;;;;;;;18.53;63.55;98424.28;4424805;32;33532;-85
2022/09/28 12:31:38;;;;;;;;;;;;;;;18.98;63.04;98415.59;4427451;32;34871;-84
2022/09/28 12:34:24;;;;;;;;;;;;;;;18.39;66.69;98413.94;4425473;32;34821;-81
2022/09/28 12:37:22;;;;;;;;;;;;;;;18.94;64.28;98403.72;4425819;32;34941;-84
2022/09/28 12:40:08;;;;;;;;;;;;;;;19.47;61.94;98408.44;4436572;32;34519;-82
2022/09/28 12:43:13;;;;;;;;;;;;;;;20.02;62.03;98399.50;4437259;32;35731;-82
2022/09/28 12:46:03;;;;;;;;;;;;;;;20.13;61.07;98399.47;4437294;32;34900;-87
2022/09/28 12:48:57;;;;;;;;;;;;;;;20.18;59.55;98399.06;4428490;32;34311;-85
2022/09/28 12:52:07;;;;;;;;;;;;;;;20.30;58.07;98398.56;4436493;32;34105;-81
2022/09/28 12:54:57;;;;;;;;;;;;;;;20.55;57.43;98398.44;4428206;32;35245;-83
2022/09/28 12:57:56;;;;;;;;;;;;;;;20.41;57.83;98398.53;4425923;32;35905;-82
2022/09/28 13:00:45;;;;;;;;;;;;;;;20.72;57.08;98390.38;4425736;32;35702;-82
2022/09/28 13:03:35;;;;;;;;;;;;;;;20.81;60.25;98404.62;4436453;32;35025;-87
2022/09/28 13:06:27;;;;;;;;;;;;;;;21.21;55.22;98393.94;4416619;32;35735;-84
2022/09/28 13:09:15;;;;;;;;;;;;;;;20.94;58.76;98386.22;4424870;32;35210;-83
2022/09/28 13:12:04;;;;;;;;;;;;;;;20.74;57.73;98393.53;4426374;32;34812;-82
2022/09/28 13:15:10;;;;;;;;;;;;;;;20.02;59.26;98379.28;4437085;32;33041;-81
2022/09/28 13:18:15;;;;;;;;;;;;;;;19.92;58.95;98380.88;4433955;32;34349;-82
2022/09/28 13:21:07;;;;;;;;;;;;;;;18.64;63.70;98391.81;4442913;32;36307;-80
2022/09/28 13:23:53;;;;;;;;;;;;;;;18.82;62.39;98397.38;4436646;32;34915;-81
2022/09/28 13:26:49;;;;;;;;;;;;;;;18.64;63.21;98402.09;4438631;32;33681;-80
2022/09/28 13:29:35;;;;;;;;;;;;;;;18.59;65.74;98399.72;4436477;32;34815;-80
2022/09/28 13:32:23;;;;;;;;;;;;;;;18.12;68.02;98393.28;4425306;32;34766;-82
2022/09/28 13:35:18;;;;;;;;;;;;;;;18.66;64.62;98394.94;4434131;32;35939;-80
2022/09/28 13:38:16;;;;;;;;;;;;;;;18.33;65.87;98389.78;4433011;32;33974;-80
2022/09/28 13:41:02;;;;;;;;;;;;;;;18.04;67.13;98388.91;4443627;32;34915;-82
2022/09/28 13:43:49;;;;;;;;;;;;;;;18.42;64.67;98390.19;4442878;32;34774;-81
2022/09/28 13:46:54;;;;;;;;;;;;;;;19.10;63.40;98391.03;4436441;32;34963;-81
2022/09/28 13:49:41;;;;;;;;;;;;;;;19.11;61.56;98397.38;4436129;32;34970;-80
2022/09/28 13:52:36;;;;;;;;;;;;;;;18.90;62.09;98386.25;4437193;32;33386;-83
2022/09/28 13:55:28;;;;;;;;;;;;;;;18.49;61.60;98394.94;4433986;32;34522;-80
2022/09/28 13:58:23;;;;;;;;;;;;;;;18.92;61.16;98390.22;4434677;32;34906;-81
2022/09/28 14:01:10;;;;;;;;;;;;;;;18.95;60.63;98383.09;4446262;32;34133;-81
2022/09/28 14:04:17;;;;;;;;;;;;;;;19.43;57.32;98385.41;4437451;32;34936;-82
2022/09/28 14:07:15;;;;;;;;;;;;;;;18.56;58.17;98397.75;4435586;32;33768;-79
2022/09/28 14:10:17;;;;;;;;;;;;;;;18.86;58.85;98392.59;4437710;32;35868;-82
2022/09/28 14:13:03;;;;;;;;;;;;;;;18.58;58.70;98395.34;4450986;32;34968;-84
2022/09/28 14:15:54;;;;;;;;;;;;;;;18.50;59.10;98390.97;4421434;32;34885;-80
2022/09/28 14:18:40;;;;;;;;;;;;;;;18.63;60.00;98394.97;4436544;32;35156;-80
2022/09/28 14:21:45;;;;;;;;;;;;;;;17.53;63.12;98380.38;4446163;32;34999;-82
2022/09/28 14:24:49;;;;;;;;;;;;;;;18.08;61.61;98389.72;4436937;32;34080;-81
2022/09/28 14:27:36;;;;;;;;;;;;;;;18.38;61.08;98384.63;4435432;32;34825;-82
2022/09/28 14:30:41;;;;;;;;;;;;;;;17.98;62.84;98378.19;4445785;32;35663;-81
2022/09/28 14:33:28;;;;;;;;;;;;;;;18.33;62.12;98378.69;4446447;32;34886;-81
2022/09/28 14:43:19;;;;;;;;;;;;;;;18.63;63.76;98373.56;4447319;32;33980;-81
2022/09/28 14:46:13;;;;;;;;;;;;;;;19.01;60.41;98375.94;4433648;32;34925;-81
2022/09/28 14:49:03;;;;;;;;;;;;;;;18.60;63.13;98368.78;4447554;32;34181;-81
2022/09/28 14:51:53;;;;;;;;;;;;;;;18.31;63.56;98373.53;4447670;32;35500;-81
2022/09/28 14:54:48;;;;;;;;;;;;;;;18.41;64.61;98372.75;4447483;32;36204;-80
2022/09/28 14:57:35;;;;;;;;;;;;;;;18.75;64.09;98364.06;4434125;32;34670;-81
2022/09/28 15:00:21;;;;;;;;;;;;;;;17.92;67.81;98360.34;4424689;32;34155;-81
2022/09/28 15:03:08;;;;;;;;;;;;;;;18.27;64.81;98361.66;4435064;32;34880;-80
2022/09/28 15:05:58;;;;;;;;;;;;;;;17.92;66.77;98357.59;4435914;32;35310;-81